sensor_id;sensor_type;location;lat;lon;timestamp;pressure;altitude;pressure_sealevel;temperature
58929;BMP180;44713;53.378;10.022;2023-04-12T00:02:10;100740.00;;;3.00
58929;BMP180;44713;53.378;10.022;2023-04-12T00:04:35;100737.00;;;2.90
58929;BMP180;44713;53.378;10.022;2023-04-12T00:07:01;100732.00;;;2.90
58929;BMP180;44713;53.378;10.022;2023-04-12T00:09:30;100721.00;;;2.90
58929;BMP180;44713;53.378;10.022;2023-04-12T00:11:59;100719.00;;;2.90
58929;BMP180;44713;53.378;10.022;2023-04-12T00:14:28;100715.00;;;2.90
58929;BMP180;44713;53.378;10.022;2023-04-12T00:16:54;100722.00;;;3.00
58929;BMP180;44713;53.378;10.022;2023-04-12T00:19:19;100711.00;;;2.80
58929;BMP180;44713;53.378;10.022;2023-04-12T00:21:45;100711.00;;;2.70
58929;BMP180;44713;53.378;10.022;2023-04-12T00:24:10;100710.00;;;2.60
58929;BMP180;44713;53.378;10.022;2023-04-12T00:26:35;100715.00;;;2.60
58929;BMP180;44713;53.378;10.022;2023-04-12T00:29:01;100710.00;;;2.60
58929;BMP180;44713;53.378;10.022;2023-04-12T00:31:26;100702.00;;;2.60
58929;BMP180;44713;53.378;10.022;2023-04-12T00:33:52;100699.00;;;2.60
58929;BMP180;44713;53.378;10.022;2023-04-12T00:36:18;100691.00;;;2.70
58929;BMP180;44713;53.378;10.022;2023-04-12T00:38:43;100691.00;;;2.70
58929;BMP180;44713;53.378;10.022;2023-04-12T00:41:10;100683.00;;;2.70
58929;BMP180;44713;53.378;10.022;2023-04-12T00:43:39;100684.00;;;2.70
58929;BMP180;44713;53.378;10.022;2023-04-12T00:46:04;100675.00;;;2.70
58929;BMP180;44713;53.378;10.022;2023-04-12T00:48:30;100671.00;;;2.70
58929;BMP180;44713;53.378;10.022;2023-04-12T00:50:55;100671.00;;;2.70
58929;BMP180;44713;53.378;10.022;2023-04-12T00:53:21;100663.00;;;2.70
58929;BMP180;44713;53.378;10.022;2023-04-12T00:55:48;100672.00;;;2.60
58929;BMP180;44713;53.378;10.022;2023-04-12T00:58:14;100658.00;;;2.60
58929;BMP180;44713;53.378;10.022;2023-04-12T01:00:40;100652.00;;;2.70
58929;BMP180;44713;53.378;10.022;2023-04-12T01:03:06;100644.00;;;2.70
58929;BMP180;44713;53.378;10.022;2023-04-12T01:05:39;100646.00;;;2.70
58929;BMP180;44713;53.378;10.022;2023-04-12T01:10:48;100628.00;;;2.70
58929;BMP180;44713;53.378;10.022;2023-04-12T01:13:38;100629.00;;;2.60
58929;BMP180;44713;53.378;10.022;2023-04-12T01:16:19;100636.00;;;2.60
58929;BMP180;44713;53.378;10.022;2023-04-12T01:18:47;100628.00;;;2.50
58929;BMP180;44713;53.378;10.022;2023-04-12T01:21:39;100634.00;;;2.40
58929;BMP180;44713;53.378;10.022;2023-04-12T01:24:34;100621.00;;;2.50
58929;BMP180;44713;53.378;10.022;2023-04-12T01:27:08;100616.00;;;2.60
58929;BMP180;44713;53.378;10.022;2023-04-12T01:29:36;100611.00;;;2.50
58929;BMP180;44713;53.378;10.022;2023-04-12T01:32:01;100605.00;;;2.50
58929;BMP180;44713;53.378;10.022;2023-04-12T01:34:30;100600.00;;;2.50
58929;BMP180;44713;53.378;10.022;2023-04-12T01:36:58;100599.00;;;2.40
58929;BMP180;44713;53.378;10.022;2023-04-12T01:39:26;100597.00;;;2.40
58929;BMP180;44713;53.378;10.022;2023-04-12T01:41:51;100596.00;;;2.50
58929;BMP180;44713;53.378;10.022;2023-04-12T01:44:17;100595.00;;;2.50
58929;BMP180;44713;53.378;10.022;2023-04-12T01:46:44;100588.00;;;2.60
58929;BMP180;44713;53.378;10.022;2023-04-12T01:49:12;100581.00;;;2.70
58929;BMP180;44713;53.378;10.022;2023-04-12T01:51:54;100575.00;;;2.70
58929;BMP180;44713;53.378;10.022;2023-04-12T01:54:23;100586.00;;;2.70
58929;BMP180;44713;53.378;10.022;2023-04-12T01:56:55;100589.00;;;2.80
58929;BMP180;44713;53.378;10.022;2023-04-12T01:59:26;100577.00;;;2.70
58929;BMP180;44713;53.378;10.022;2023-04-12T02:01:52;100570.00;;;2.60
58929;BMP180;44713;53.378;10.022;2023-04-12T02:04:18;100565.00;;;2.60
58929;BMP180;44713;53.378;10.022;2023-04-12T02:06:45;100559.00;;;2.60
58929;BMP180;44713;53.378;10.022;2023-04-12T02:09:11;100559.00;;;2.70
58929;BMP180;44713;53.378;10.022;2023-04-12T02:11:38;100551.00;;;2.70
58929;BMP180;44713;53.378;10.022;2023-04-12T02:14:03;100554.00;;;2.60
58929;BMP180;44713;53.378;10.022;2023-04-12T02:16:29;100549.00;;;2.60
58929;BMP180;44713;53.378;10.022;2023-04-12T02:18:56;100539.00;;;2.70
58929;BMP180;44713;53.378;10.022;2023-04-12T02:21:23;100544.00;;;2.70
58929;BMP180;44713;53.378;10.022;2023-04-12T02:23:49;100530.00;;;2.70
58929;BMP180;44713;53.378;10.022;2023-04-12T02:26:14;100534.00;;;2.80
58929;BMP180;44713;53.378;10.022;2023-04-12T02:28:40;100525.00;;;2.80
58929;BMP180;44713;53.378;10.022;2023-04-12T02:31:09;100523.00;;;2.80
58929;BMP180;44713;53.378;10.022;2023-04-12T02:33:35;100517.00;;;2.80
58929;BMP180;44713;53.378;10.022;2023-04-12T02:36:02;100499.00;;;2.80
58929;BMP180;44713;53.378;10.022;2023-04-12T02:38:28;100484.00;;;2.80
58929;BMP180;44713;53.378;10.022;2023-04-12T02:40:55;100483.00;;;2.70
58929;BMP180;44713;53.378;10.022;2023-04-12T02:43:20;100486.00;;;2.70
58929;BMP180;44713;53.378;10.022;2023-04-12T02:45:55;100478.00;;;2.70
58929;BMP180;44713;53.378;10.022;2023-04-12T02:48:20;100472.00;;;2.70
58929;BMP180;44713;53.378;10.022;2023-04-12T02:50:46;100460.00;;;2.70
58929;BMP180;44713;53.378;10.022;2023-04-12T02:53:15;100466.00;;;2.70
58929;BMP180;44713;53.378;10.022;2023-04-12T02:55:43;100457.00;;;2.80
58929;BMP180;44713;53.378;10.022;2023-04-12T02:58:10;100451.00;;;2.80
58929;BMP180;44713;53.378;10.022;2023-04-12T03:00:44;100462.00;;;2.80
58929;BMP180;44713;53.378;10.022;2023-04-12T03:03:13;100452.00;;;2.70
58929;BMP180;44713;53.378;10.022;2023-04-12T03:05:39;100445.00;;;2.70
58929;BMP180;44713;53.378;10.022;2023-04-12T03:08:05;100434.00;;;2.70
58929;BMP180;44713;53.378;10.022;2023-04-12T03:10:37;100415.00;;;2.80
58929;BMP180;44713;53.378;10.022;2023-04-12T03:13:04;100410.00;;;2.70
58929;BMP180;44713;53.378;10.022;2023-04-12T03:15:35;100415.00;;;2.60
58929;BMP180;44713;53.378;10.022;2023-04-12T03:18:01;100409.00;;;2.50
58929;BMP180;44713;53.378;10.022;2023-04-12T03:20:30;100400.00;;;2.40
58929;BMP180;44713;53.378;10.022;2023-04-12T03:23:04;100397.00;;;2.50
58929;BMP180;44713;53.378;10.022;2023-04-12T03:25:31;100386.00;;;2.50
58929;BMP180;44713;53.378;10.022;2023-04-12T03:28:09;100381.00;;;2.70
58929;BMP180;44713;53.378;10.022;2023-04-12T03:30:45;100382.00;;;2.70
58929;BMP180;44713;53.378;10.022;2023-04-12T03:33:11;100371.00;;;2.60
58929;BMP180;44713;53.378;10.022;2023-04-12T03:35:37;100366.00;;;2.60
58929;BMP180;44713;53.378;10.022;2023-04-12T03:38:03;100367.00;;;2.70
58929;BMP180;44713;53.378;10.022;2023-04-12T03:40:29;100358.00;;;2.70
58929;BMP180;44713;53.378;10.022;2023-04-12T03:42:56;100359.00;;;2.70
58929;BMP180;44713;53.378;10.022;2023-04-12T03:45:23;100348.00;;;2.80
58929;BMP180;44713;53.378;10.022;2023-04-12T03:47:52;100345.00;;;2.80
58929;BMP180;44713;53.378;10.022;2023-04-12T03:50:20;100339.00;;;2.80
58929;BMP180;44713;53.378;10.022;2023-04-12T03:52:52;100345.00;;;2.70
58929;BMP180;44713;53.378;10.022;2023-04-12T03:55:18;100338.00;;;2.70
58929;BMP180;44713;53.378;10.022;2023-04-12T03:57:45;100326.00;;;2.70
58929;BMP180;44713;53.378;10.022;2023-04-12T04:00:12;100322.00;;;2.80
58929;BMP180;44713;53.378;10.022;2023-04-12T04:02:43;100320.00;;;2.80
58929;BMP180;44713;53.378;10.022;2023-04-12T04:05:09;100306.00;;;2.80
58929;BMP180;44713;53.378;10.022;2023-04-12T04:07:37;100292.00;;;2.90
58929;BMP180;44713;53.378;10.022;2023-04-12T04:10:03;100286.00;;;2.90
58929;BMP180;44713;53.378;10.022;2023-04-12T04:12:34;100282.00;;;2.90
58929;BMP180;44713;53.378;10.022;2023-04-12T04:14:59;100280.00;;;2.90
58929;BMP180;44713;53.378;10.022;2023-04-12T04:17:32;100276.00;;;3.00
58929;BMP180;44713;53.378;10.022;2023-04-12T04:19:57;100269.00;;;2.90
58929;BMP180;44713;53.378;10.022;2023-04-12T04:22:24;100265.00;;;3.00
58929;BMP180;44713;53.378;10.022;2023-04-12T04:24:51;100258.00;;;2.90
58929;BMP180;44713;53.378;10.022;2023-04-12T04:27:17;100269.00;;;3.00
58929;BMP180;44713;53.378;10.022;2023-04-12T04:29:45;100266.00;;;3.00
58929;BMP180;44713;53.378;10.022;2023-04-12T04:32:13;100266.00;;;3.00
58929;BMP180;44713;53.378;10.022;2023-04-12T04:34:40;100254.00;;;3.00
58929;BMP180;44713;53.378;10.022;2023-04-12T04:37:09;100257.00;;;3.00
58929;BMP180;44713;53.378;10.022;2023-04-12T04:39:36;100240.00;;;3.10
58929;BMP180;44713;53.378;10.022;2023-04-12T04:42:02;100240.00;;;3.10
58929;BMP180;44713;53.378;10.022;2023-04-12T04:44:38;100237.00;;;3.10
58929;BMP180;44713;53.378;10.022;2023-04-12T04:47:06;100229.00;;;3.00
58929;BMP180;44713;53.378;10.022;2023-04-12T04:49:33;100230.00;;;3.00
58929;BMP180;44713;53.378;10.022;2023-04-12T04:52:03;100223.00;;;3.00
58929;BMP180;44713;53.378;10.022;2023-04-12T04:54:29;100211.00;;;2.90
58929;BMP180;44713;53.378;10.022;2023-04-12T04:56:57;100214.00;;;3.00
58929;BMP180;44713;53.378;10.022;2023-04-12T04:59:25;100208.00;;;2.90
58929;BMP180;44713;53.378;10.022;2023-04-12T05:01:59;100215.00;;;2.90
58929;BMP180;44713;53.378;10.022;2023-04-12T05:04:25;100211.00;;;2.90
58929;BMP180;44713;53.378;10.022;2023-04-12T05:06:52;100212.00;;;2.90
58929;BMP180;44713;53.378;10.022;2023-04-12T05:09:21;100215.00;;;2.90
58929;BMP180;44713;53.378;10.022;2023-04-12T05:11:54;100216.00;;;3.00
58929;BMP180;44713;53.378;10.022;2023-04-12T05:14:19;100197.00;;;3.00
58929;BMP180;44713;53.378;10.022;2023-04-12T05:16:44;100197.00;;;3.00
58929;BMP180;44713;53.378;10.022;2023-04-12T05:19:10;100203.00;;;3.00
58929;BMP180;44713;53.378;10.022;2023-04-12T05:21:35;100194.00;;;3.10
58929;BMP180;44713;53.378;10.022;2023-04-12T05:24:01;100184.00;;;3.10
58929;BMP180;44713;53.378;10.022;2023-04-12T05:26:28;100182.00;;;3.20
58929;BMP180;44713;53.378;10.022;2023-04-12T05:28:54;100176.00;;;3.30
58929;BMP180;44713;53.378;10.022;2023-04-12T05:31:20;100165.00;;;3.20
58929;BMP180;44713;53.378;10.022;2023-04-12T05:33:46;100171.00;;;3.20
58929;BMP180;44713;53.378;10.022;2023-04-12T05:36:13;100162.00;;;3.30
58929;BMP180;44713;53.378;10.022;2023-04-12T05:38:41;100161.00;;;3.40
58929;BMP180;44713;53.378;10.022;2023-04-12T05:41:10;100158.00;;;3.40
58929;BMP180;44713;53.378;10.022;2023-04-12T05:43:36;100163.00;;;3.50
58929;BMP180;44713;53.378;10.022;2023-04-12T05:46:04;100151.00;;;3.70
58929;BMP180;44713;53.378;10.022;2023-04-12T05:48:32;100159.00;;;3.80
58929;BMP180;44713;53.378;10.022;2023-04-12T05:51:01;100156.00;;;3.80
58929;BMP180;44713;53.378;10.022;2023-04-12T05:53:26;100150.00;;;3.90
58929;BMP180;44713;53.378;10.022;2023-04-12T05:55:54;100150.00;;;4.00
58929;BMP180;44713;53.378;10.022;2023-04-12T05:58:21;100144.00;;;4.10
58929;BMP180;44713;53.378;10.022;2023-04-12T06:00:49;100134.00;;;4.20
58929;BMP180;44713;53.378;10.022;2023-04-12T06:03:15;100125.00;;;4.30
58929;BMP180;44713;53.378;10.022;2023-04-12T06:05:41;100122.00;;;4.40
58929;BMP180;44713;53.378;10.022;2023-04-12T06:08:06;100112.00;;;4.40
58929;BMP180;44713;53.378;10.022;2023-04-12T06:10:32;100122.00;;;4.60
58929;BMP180;44713;53.378;10.022;2023-04-12T06:12:58;100118.00;;;4.60
58929;BMP180;44713;53.378;10.022;2023-04-12T06:15:24;100124.00;;;4.70
58929;BMP180;44713;53.378;10.022;2023-04-12T06:17:52;100121.00;;;4.90
58929;BMP180;44713;53.378;10.022;2023-04-12T06:20:18;100108.00;;;4.90
58929;BMP180;44713;53.378;10.022;2023-04-12T06:22:43;100100.00;;;5.00
58929;BMP180;44713;53.378;10.022;2023-04-12T06:25:13;100094.00;;;5.10
58929;BMP180;44713;53.378;10.022;2023-04-12T06:27:38;100088.00;;;5.20
58929;BMP180;44713;53.378;10.022;2023-04-12T06:30:05;100085.00;;;5.30
58929;BMP180;44713;53.378;10.022;2023-04-12T06:32:33;100095.00;;;5.40
58929;BMP180;44713;53.378;10.022;2023-04-12T06:34:59;100091.00;;;5.50
58929;BMP180;44713;53.378;10.022;2023-04-12T06:37:24;100092.00;;;5.60
58929;BMP180;44713;53.378;10.022;2023-04-12T06:39:50;100094.00;;;5.70
58929;BMP180;44713;53.378;10.022;2023-04-12T06:42:16;100086.00;;;5.90
58929;BMP180;44713;53.378;10.022;2023-04-12T06:44:42;100086.00;;;6.00
58929;BMP180;44713;53.378;10.022;2023-04-12T06:47:07;100082.00;;;6.20
58929;BMP180;44713;53.378;10.022;2023-04-12T06:49:33;100079.00;;;6.40
58929;BMP180;44713;53.378;10.022;2023-04-12T06:51:58;100065.00;;;6.50
58929;BMP180;44713;53.378;10.022;2023-04-12T06:54:24;100059.00;;;6.60
58929;BMP180;44713;53.378;10.022;2023-04-12T06:56:50;100056.00;;;6.80
58929;BMP180;44713;53.378;10.022;2023-04-12T06:59:15;100037.00;;;7.10
58929;BMP180;44713;53.378;10.022;2023-04-12T07:01:40;100041.00;;;7.30
58929;BMP180;44713;53.378;10.022;2023-04-12T07:04:06;100042.00;;;7.30
58929;BMP180;44713;53.378;10.022;2023-04-12T07:06:31;100040.00;;;7.40
58929;BMP180;44713;53.378;10.022;2023-04-12T07:08:57;100035.00;;;7.60
58929;BMP180;44713;53.378;10.022;2023-04-12T07:11:22;100038.00;;;7.60
58929;BMP180;44713;53.378;10.022;2023-04-12T07:13:48;100025.00;;;7.60
58929;BMP180;44713;53.378;10.022;2023-04-12T07:16:13;100029.00;;;7.60
58929;BMP180;44713;53.378;10.022;2023-04-12T07:18:39;100031.00;;;7.60
58929;BMP180;44713;53.378;10.022;2023-04-12T07:21:05;100023.00;;;7.80
58929;BMP180;44713;53.378;10.022;2023-04-12T07:23:30;100020.00;;;7.90
58929;BMP180;44713;53.378;10.022;2023-04-12T07:25:59;100020.00;;;8.00
58929;BMP180;44713;53.378;10.022;2023-04-12T07:28:27;100013.00;;;8.10
58929;BMP180;44713;53.378;10.022;2023-04-12T07:30:53;100008.00;;;8.10
58929;BMP180;44713;53.378;10.022;2023-04-12T07:33:18;100009.00;;;8.20
58929;BMP180;44713;53.378;10.022;2023-04-12T07:35:43;100010.00;;;8.10
58929;BMP180;44713;53.378;10.022;2023-04-12T07:38:09;100004.00;;;8.10
58929;BMP180;44713;53.378;10.022;2023-04-12T07:40:34;100004.00;;;8.10
58929;BMP180;44713;53.378;10.022;2023-04-12T07:43:00;99993.00;;;8.20
58929;BMP180;44713;53.378;10.022;2023-04-12T07:45:25;99996.00;;;8.30
58929;BMP180;44713;53.378;10.022;2023-04-12T07:47:51;99983.00;;;8.20
58929;BMP180;44713;53.378;10.022;2023-04-12T07:50:16;99983.00;;;8.30
58929;BMP180;44713;53.378;10.022;2023-04-12T07:52:42;99983.00;;;8.20
58929;BMP180;44713;53.378;10.022;2023-04-12T07:55:07;99980.00;;;8.20
58929;BMP180;44713;53.378;10.022;2023-04-12T07:57:34;99975.00;;;8.20
58929;BMP180;44713;53.378;10.022;2023-04-12T07:59:59;99975.00;;;8.20
58929;BMP180;44713;53.378;10.022;2023-04-12T08:02:24;99972.00;;;8.20
58929;BMP180;44713;53.378;10.022;2023-04-12T08:04:52;99968.00;;;8.20
58929;BMP180;44713;53.378;10.022;2023-04-12T08:07:17;99960.00;;;8.20
58929;BMP180;44713;53.378;10.022;2023-04-12T08:09:43;99954.00;;;8.30
58929;BMP180;44713;53.378;10.022;2023-04-12T08:12:08;99943.00;;;8.30
58929;BMP180;44713;53.378;10.022;2023-04-12T08:14:34;99941.00;;;8.30
58929;BMP180;44713;53.378;10.022;2023-04-12T08:16:59;99939.00;;;8.30
58929;BMP180;44713;53.378;10.022;2023-04-12T08:19:25;99931.00;;;8.30
58929;BMP180;44713;53.378;10.022;2023-04-12T08:21:51;99925.00;;;8.40
58929;BMP180;44713;53.378;10.022;2023-04-12T08:24:17;99928.00;;;8.40
58929;BMP180;44713;53.378;10.022;2023-04-12T08:26:44;99925.00;;;8.40
58929;BMP180;44713;53.378;10.022;2023-04-12T08:29:09;99924.00;;;8.50
58929;BMP180;44713;53.378;10.022;2023-04-12T08:31:35;99909.00;;;8.50
58929;BMP180;44713;53.378;10.022;2023-04-12T08:34:00;99915.00;;;8.40
58929;BMP180;44713;53.378;10.022;2023-04-12T08:36:26;99896.00;;;8.50
58929;BMP180;44713;53.378;10.022;2023-04-12T08:38:51;99887.00;;;8.50
58929;BMP180;44713;53.378;10.022;2023-04-12T08:41:19;99878.00;;;8.50
58929;BMP180;44713;53.378;10.022;2023-04-12T08:43:45;99877.00;;;8.50
58929;BMP180;44713;53.378;10.022;2023-04-12T08:46:13;99872.00;;;8.60
58929;BMP180;44713;53.378;10.022;2023-04-12T08:48:40;99868.00;;;8.60
58929;BMP180;44713;53.378;10.022;2023-04-12T08:51:10;99868.00;;;8.80
58929;BMP180;44713;53.378;10.022;2023-04-12T08:53:37;99865.00;;;8.80
58929;BMP180;44713;53.378;10.022;2023-04-12T08:56:03;99869.00;;;9.00
58929;BMP180;44713;53.378;10.022;2023-04-12T08:58:30;99852.00;;;9.20
58929;BMP180;44713;53.378;10.022;2023-04-12T09:00:56;99834.00;;;9.30
58929;BMP180;44713;53.378;10.022;2023-04-12T09:03:21;99829.00;;;9.50
58929;BMP180;44713;53.378;10.022;2023-04-12T09:05:47;99821.00;;;9.70
58929;BMP180;44713;53.378;10.022;2023-04-12T09:08:12;99822.00;;;9.80
58929;BMP180;44713;53.378;10.022;2023-04-12T09:10:37;99817.00;;;9.90
58929;BMP180;44713;53.378;10.022;2023-04-12T09:13:03;99811.00;;;10.00
58929;BMP180;44713;53.378;10.022;2023-04-12T09:15:29;99811.00;;;10.10
58929;BMP180;44713;53.378;10.022;2023-04-12T09:18:09;99811.00;;;10.30
58929;BMP180;44713;53.378;10.022;2023-04-12T09:20:35;99802.00;;;10.30
58929;BMP180;44713;53.378;10.022;2023-04-12T09:23:16;99812.00;;;10.30
58929;BMP180;44713;53.378;10.022;2023-04-12T09:25:42;99804.00;;;10.40
58929;BMP180;44713;53.378;10.022;2023-04-12T09:28:23;99799.00;;;10.40
58929;BMP180;44713;53.378;10.022;2023-04-12T09:30:51;99794.00;;;10.30
58929;BMP180;44713;53.378;10.022;2023-04-12T09:33:20;99786.00;;;10.30
58929;BMP180;44713;53.378;10.022;2023-04-12T09:35:46;99780.00;;;10.40
58929;BMP180;44713;53.378;10.022;2023-04-12T09:38:11;99778.00;;;10.50
58929;BMP180;44713;53.378;10.022;2023-04-12T09:40:37;99772.00;;;10.50
58929;BMP180;44713;53.378;10.022;2023-04-12T09:43:03;99770.00;;;10.60
58929;BMP180;44713;53.378;10.022;2023-04-12T09:45:32;99771.00;;;10.60
58929;BMP180;44713;53.378;10.022;2023-04-12T09:47:58;99758.00;;;10.60
58929;BMP180;44713;53.378;10.022;2023-04-12T09:50:25;99759.00;;;10.60
58929;BMP180;44713;53.378;10.022;2023-04-12T09:52:53;99751.00;;;10.60
58929;BMP180;44713;53.378;10.022;2023-04-12T09:55:21;99751.00;;;10.70
58929;BMP180;44713;53.378;10.022;2023-04-12T09:57:49;99743.00;;;10.70
58929;BMP180;44713;53.378;10.022;2023-04-12T10:00:15;99730.00;;;10.80
58929;BMP180;44713;53.378;10.022;2023-04-12T10:02:54;99730.00;;;10.80
58929;BMP180;44713;53.378;10.022;2023-04-12T10:05:21;99731.00;;;10.90
58929;BMP180;44713;53.378;10.022;2023-04-12T10:07:49;99719.00;;;11.00
58929;BMP180;44713;53.378;10.022;2023-04-12T10:10:16;99733.00;;;11.00
58929;BMP180;44713;53.378;10.022;2023-04-12T10:12:44;99724.00;;;11.10
58929;BMP180;44713;53.378;10.022;2023-04-12T10:15:11;99723.00;;;11.20
58929;BMP180;44713;53.378;10.022;2023-04-12T10:17:44;99722.00;;;11.30
58929;BMP180;44713;53.378;10.022;2023-04-12T10:20:11;99718.00;;;11.40
58929;BMP180;44713;53.378;10.022;2023-04-12T10:22:51;99715.00;;;11.30
58929;BMP180;44713;53.378;10.022;2023-04-12T10:25:27;99712.00;;;11.20
58929;BMP180;44713;53.378;10.022;2023-04-12T10:27:55;99720.00;;;11.10
58929;BMP180;44713;53.378;10.022;2023-04-12T10:30:29;99716.00;;;11.10
58929;BMP180;44713;53.378;10.022;2023-04-12T10:38:15;99703.00;;;10.90
58929;BMP180;44713;53.378;10.022;2023-04-12T10:43:30;99721.00;;;10.60
58929;BMP180;44713;53.378;10.022;2023-04-12T10:45:56;99720.00;;;10.60
58929;BMP180;44713;53.378;10.022;2023-04-12T10:48:35;99709.00;;;10.50
58929;BMP180;44713;53.378;10.022;2023-04-12T10:51:14;99716.00;;;10.40
58929;BMP180;44713;53.378;10.022;2023-04-12T10:53:40;99720.00;;;10.30
58929;BMP180;44713;53.378;10.022;2023-04-12T10:59:03;99723.00;;;10.00
58929;BMP180;44713;53.378;10.022;2023-04-12T11:01:33;99726.00;;;10.00
58929;BMP180;44713;53.378;10.022;2023-04-12T11:09:43;99734.00;;;9.90
58929;BMP180;44713;53.378;10.022;2023-04-12T11:12:14;99740.00;;;9.80
58929;BMP180;44713;53.378;10.022;2023-04-12T11:14:44;99740.00;;;9.80
58929;BMP180;44713;53.378;10.022;2023-04-12T11:19:42;99743.00;;;9.90
58929;BMP180;44713;53.378;10.022;2023-04-12T11:22:13;99744.00;;;9.90
58929;BMP180;44713;53.378;10.022;2023-04-12T11:24:39;99735.00;;;10.00
58929;BMP180;44713;53.378;10.022;2023-04-12T11:27:07;99742.00;;;10.00
58929;BMP180;44713;53.378;10.022;2023-04-12T11:29:32;99731.00;;;10.00
58929;BMP180;44713;53.378;10.022;2023-04-12T11:32:01;99732.00;;;9.90
58929;BMP180;44713;53.378;10.022;2023-04-12T11:34:34;99734.00;;;9.90
58929;BMP180;44713;53.378;10.022;2023-04-12T11:37:00;99730.00;;;9.80
58929;BMP180;44713;53.378;10.022;2023-04-12T11:39:30;99732.00;;;9.90
58929;BMP180;44713;53.378;10.022;2023-04-12T11:41:55;99729.00;;;9.80
58929;BMP180;44713;53.378;10.022;2023-04-12T11:44:21;99726.00;;;9.70
58929;BMP180;44713;53.378;10.022;2023-04-12T11:46:48;99721.00;;;9.60
58929;BMP180;44713;53.378;10.022;2023-04-12T11:49:14;99726.00;;;9.60
58929;BMP180;44713;53.378;10.022;2023-04-12T11:51:40;99720.00;;;9.60
58929;BMP180;44713;53.378;10.022;2023-04-12T11:54:06;99712.00;;;9.50
58929;BMP180;44713;53.378;10.022;2023-04-12T11:56:32;99697.00;;;9.60
58929;BMP180;44713;53.378;10.022;2023-04-12T11:58:57;99694.00;;;9.60
58929;BMP180;44713;53.378;10.022;2023-04-12T12:01:23;99706.00;;;9.40
58929;BMP180;44713;53.378;10.022;2023-04-12T12:03:48;99701.00;;;9.40
58929;BMP180;44713;53.378;10.022;2023-04-12T12:06:14;99691.00;;;9.30
58929;BMP180;44713;53.378;10.022;2023-04-12T12:08:40;99696.00;;;9.40
58929;BMP180;44713;53.378;10.022;2023-04-12T12:11:06;99690.00;;;9.40
58929;BMP180;44713;53.378;10.022;2023-04-12T12:13:49;99688.00;;;9.40
58929;BMP180;44713;53.378;10.022;2023-04-12T12:16:15;99684.00;;;9.40
58929;BMP180;44713;53.378;10.022;2023-04-12T12:18:47;99681.00;;;9.40
58929;BMP180;44713;53.378;10.022;2023-04-12T12:21:13;99667.00;;;9.50
58929;BMP180;44713;53.378;10.022;2023-04-12T12:23:41;99668.00;;;9.50
58929;BMP180;44713;53.378;10.022;2023-04-12T12:26:06;99670.00;;;9.60
58929;BMP180;44713;53.378;10.022;2023-04-12T12:28:38;99670.00;;;9.50
58929;BMP180;44713;53.378;10.022;2023-04-12T12:31:10;99657.00;;;9.50
58929;BMP180;44713;53.378;10.022;2023-04-12T12:33:37;99655.00;;;9.60
58929;BMP180;44713;53.378;10.022;2023-04-12T12:36:02;99652.00;;;9.60
58929;BMP180;44713;53.378;10.022;2023-04-12T12:38:35;99649.00;;;9.60
58929;BMP180;44713;53.378;10.022;2023-04-12T12:41:20;99637.00;;;9.60
58929;BMP180;44713;53.378;10.022;2023-04-12T12:43:47;99647.00;;;9.60
58929;BMP180;44713;53.378;10.022;2023-04-12T12:46:13;99639.00;;;9.60
58929;BMP180;44713;53.378;10.022;2023-04-12T12:48:41;99639.00;;;9.60
58929;BMP180;44713;53.378;10.022;2023-04-12T12:51:07;99638.00;;;9.60
58929;BMP180;44713;53.378;10.022;2023-04-12T12:53:34;99627.00;;;9.60
58929;BMP180;44713;53.378;10.022;2023-04-12T12:56:00;99626.00;;;9.70
58929;BMP180;44713;53.378;10.022;2023-04-12T12:58:25;99627.00;;;9.80
58929;BMP180;44713;53.378;10.022;2023-04-12T13:00:51;99620.00;;;9.80
58929;BMP180;44713;53.378;10.022;2023-04-12T13:03:16;99612.00;;;9.90
58929;BMP180;44713;53.378;10.022;2023-04-12T13:05:41;99616.00;;;9.90
58929;BMP180;44713;53.378;10.022;2023-04-12T13:08:07;99617.00;;;10.00
58929;BMP180;44713;53.378;10.022;2023-04-12T13:10:32;99602.00;;;10.00
58929;BMP180;44713;53.378;10.022;2023-04-12T13:12:57;99599.00;;;9.90
58929;BMP180;44713;53.378;10.022;2023-04-12T13:15:23;99596.00;;;9.80
58929;BMP180;44713;53.378;10.022;2023-04-12T13:17:50;99586.00;;;9.80
58929;BMP180;44713;53.378;10.022;2023-04-12T13:20:16;99579.00;;;9.80
58929;BMP180;44713;53.378;10.022;2023-04-12T13:22:41;99586.00;;;9.80
58929;BMP180;44713;53.378;10.022;2023-04-12T13:25:07;99589.00;;;9.80
58929;BMP180;44713;53.378;10.022;2023-04-12T13:27:33;99574.00;;;9.80
58929;BMP180;44713;53.378;10.022;2023-04-12T13:29:58;99574.00;;;9.80
58929;BMP180;44713;53.378;10.022;2023-04-12T13:32:24;99574.00;;;9.70
58929;BMP180;44713;53.378;10.022;2023-04-12T13:34:49;99575.00;;;9.70
58929;BMP180;44713;53.378;10.022;2023-04-12T13:37:14;99570.00;;;9.70
58929;BMP180;44713;53.378;10.022;2023-04-12T13:39:40;99568.00;;;9.80
58929;BMP180;44713;53.378;10.022;2023-04-12T13:42:06;99561.00;;;9.70
58929;BMP180;44713;53.378;10.022;2023-04-12T13:44:32;99562.00;;;9.70
58929;BMP180;44713;53.378;10.022;2023-04-12T13:46:57;99570.00;;;9.60
58929;BMP180;44713;53.378;10.022;2023-04-12T13:49:23;99565.00;;;9.60
58929;BMP180;44713;53.378;10.022;2023-04-12T13:51:48;99563.00;;;9.70
58929;BMP180;44713;53.378;10.022;2023-04-12T13:54:13;99549.00;;;9.70
58929;BMP180;44713;53.378;10.022;2023-04-12T13:56:40;99554.00;;;9.70
58929;BMP180;44713;53.378;10.022;2023-04-12T13:59:05;99552.00;;;9.70
58929;BMP180;44713;53.378;10.022;2023-04-12T14:01:31;99547.00;;;9.70
58929;BMP180;44713;53.378;10.022;2023-04-12T14:03:56;99546.00;;;9.70
58929;BMP180;44713;53.378;10.022;2023-04-12T14:06:22;99548.00;;;9.70
58929;BMP180;44713;53.378;10.022;2023-04-12T14:08:48;99552.00;;;9.70
58929;BMP180;44713;53.378;10.022;2023-04-12T14:11:13;99541.00;;;9.80
58929;BMP180;44713;53.378;10.022;2023-04-12T14:13:38;99541.00;;;9.90
58929;BMP180;44713;53.378;10.022;2023-04-12T14:16:04;99538.00;;;9.90
58929;BMP180;44713;53.378;10.022;2023-04-12T14:18:31;99537.00;;;9.90
58929;BMP180;44713;53.378;10.022;2023-04-12T14:20:56;99532.00;;;9.90
58929;BMP180;44713;53.378;10.022;2023-04-12T14:23:23;99537.00;;;9.90
58929;BMP180;44713;53.378;10.022;2023-04-12T14:25:50;99541.00;;;9.90